createdAt,value
2022-09-18T00:00:50.348Z,9.06
2022-09-18T00:06:14.857Z,9.06
2022-09-18T00:11:20.157Z,9.04
2022-09-18T00:16:25.850Z,9.03
2022-09-18T00:21:32.060Z,9.04
2022-09-18T00:26:35.882Z,9.03
2022-09-18T00:31:39.622Z,9.01
2022-09-18T00:36:44.084Z,9.00
2022-09-18T00:41:47.251Z,8.99
2022-09-18T00:46:51.329Z,8.98
2022-09-18T00:51:56.018Z,8.97
2022-09-18T00:57:02.882Z,8.98
2022-09-18T01:02:06.683Z,8.97
2022-09-18T01:07:29.325Z,8.97
2022-09-18T01:12:46.026Z,9.00
2022-09-18T01:18:07.667Z,9.02
2022-09-18T01:23:21.933Z,9.07
2022-09-18T01:28:34.279Z,9.17
2022-09-18T01:33:44.733Z,9.22
2022-09-18T01:39:05.145Z,9.26
2022-09-18T01:44:16.854Z,9.33
2022-09-18T01:49:26.511Z,9.37
2022-09-18T01:54:35.966Z,9.43
2022-09-18T01:59:48.290Z,9.51
2022-09-18T02:04:55.797Z,9.60
2022-09-18T02:09:59.522Z,9.65
2022-09-18T02:15:10.610Z,9.69
2022-09-18T02:20:21.403Z,9.74
2022-09-18T02:25:32.081Z,9.84
2022-09-18T02:30:39.409Z,9.89
2022-09-18T02:35:51.092Z,9.96
2022-09-18T02:41:11.096Z,10.04
2022-09-18T02:46:29.208Z,10.09
2022-09-18T02:51:45.774Z,10.14
2022-09-18T02:56:59.836Z,10.17
2022-09-18T03:02:03.975Z,10.18
2022-09-18T03:07:07.794Z,10.21
2022-09-18T03:12:12.101Z,10.23
2022-09-18T03:17:15.333Z,10.25
2022-09-18T03:22:18.644Z,10.26
2022-09-18T03:27:21.851Z,10.27
2022-09-18T03:32:25.161Z,10.29
2022-09-18T03:37:28.371Z,10.31
2022-09-18T03:42:31.708Z,10.31
2022-09-18T03:47:36.606Z,10.33
2022-09-18T03:52:40.247Z,10.32
2022-09-18T03:57:46.017Z,10.29
2022-09-18T04:02:49.287Z,10.25
2022-09-18T04:07:53.251Z,10.23
2022-09-18T04:12:56.877Z,10.24
2022-09-18T04:18:00.090Z,10.21
2022-09-18T04:23:03.699Z,10.15
2022-09-18T04:28:07.006Z,10.15
2022-09-18T04:33:10.216Z,10.20
2022-09-18T04:38:13.629Z,10.26
2022-09-18T04:43:16.836Z,10.29
2022-09-18T04:48:21.345Z,10.33
2022-09-18T04:53:24.694Z,10.37
2022-09-18T04:58:28.002Z,10.41
2022-09-18T05:03:31.511Z,10.44
2022-09-18T05:08:35.029Z,10.48
2022-09-18T05:13:40.341Z,10.51
2022-09-18T05:18:43.597Z,10.53
2022-09-18T05:23:47.316Z,10.55
2022-09-18T05:28:51.138Z,10.59
2022-09-18T05:33:54.656Z,10.59
2022-09-18T05:38:57.864Z,10.57
2022-09-18T05:44:01.174Z,10.57
2022-09-18T05:49:06.744Z,10.64
2022-09-18T05:54:10.048Z,10.64
2022-09-18T05:59:14.062Z,10.66
2022-09-18T06:04:17.385Z,10.71
2022-09-18T06:09:20.706Z,10.80
2022-09-18T06:14:24.419Z,10.93
2022-09-18T06:19:27.728Z,11.10
2022-09-18T06:24:31.039Z,11.18
2022-09-18T06:29:34.557Z,11.28
2022-09-18T06:34:38.864Z,11.34
2022-09-18T06:39:42.813Z,11.36
2022-09-18T06:44:46.331Z,11.33
2022-09-18T06:49:50.049Z,11.37
2022-09-18T06:54:53.359Z,11.48
2022-09-18T06:59:56.777Z,11.60
2022-09-18T07:05:01.004Z,11.66
2022-09-18T07:10:09.018Z,11.72
2022-09-18T07:15:12.738Z,11.73
2022-09-18T07:20:16.025Z,11.74
2022-09-18T07:25:19.240Z,11.77
2022-09-18T07:30:22.613Z,11.75
2022-09-18T07:35:25.993Z,11.69
2022-09-18T07:40:30.033Z,11.71
2022-09-18T07:45:33.430Z,11.78
2022-09-18T07:50:37.254Z,11.83
2022-09-18T07:55:43.227Z,11.96
2022-09-18T08:00:46.543Z,12.12
2022-09-18T08:05:49.853Z,12.35
2022-09-18T08:10:56.335Z,12.61
2022-09-18T08:16:00.018Z,12.70
2022-09-18T08:21:10.376Z,12.76
2022-09-18T08:26:20.036Z,12.89
2022-09-18T08:31:25.913Z,13.02
2022-09-18T08:36:30.853Z,12.94
2022-09-18T08:41:37.394Z,12.89
2022-09-18T08:47:05.345Z,12.88
2022-09-18T08:52:23.849Z,12.70
2022-09-18T08:57:30.335Z,12.70
2022-09-18T09:02:48.698Z,12.67
2022-09-18T09:08:28.875Z,12.71
2022-09-18T09:13:44.473Z,12.93
2022-09-18T09:18:55.874Z,12.90
2022-09-18T09:24:31.543Z,12.95
2022-09-18T09:29:37.848Z,12.96
2022-09-18T09:35:10.631Z,12.78
2022-09-18T09:40:17.031Z,12.78
2022-09-18T09:45:45.099Z,12.80
2022-09-18T09:50:57.523Z,12.63
2022-09-18T09:56:29.514Z,12.58
2022-09-18T10:01:36.547Z,12.57
2022-09-18T10:06:58.052Z,12.59
2022-09-18T10:12:09.954Z,12.69
2022-09-18T10:17:14.492Z,12.77
2022-09-18T10:22:23.359Z,12.87
2022-09-18T10:27:26.853Z,12.88
2022-09-18T10:32:39.615Z,12.91
2022-09-18T10:37:43.710Z,12.95
2022-09-18T10:42:55.345Z,12.90
2022-09-18T10:48:26.480Z,12.83
2022-09-18T10:53:33.785Z,12.77
2022-09-18T10:58:37.104Z,12.76
2022-09-18T11:04:00.066Z,12.77
2022-09-18T11:09:10.033Z,12.76
2022-09-18T11:14:25.631Z,12.71
2022-09-18T11:19:40.484Z,12.67
2022-09-18T11:24:47.319Z,12.66
2022-09-18T11:29:50.923Z,12.63
2022-09-18T11:35:02.327Z,12.56
2022-09-18T11:40:15.636Z,12.60
2022-09-18T11:45:43.353Z,12.66
2022-09-18T11:50:47.177Z,12.71
2022-09-18T11:56:04.111Z,12.89
2022-09-18T12:01:31.888Z,13.02
2022-09-18T12:07:14.522Z,13.11
2022-09-18T12:12:26.608Z,13.24
2022-09-18T12:18:05.040Z,13.24
2022-09-18T12:23:14.450Z,13.25
2022-09-18T12:28:29.472Z,13.25
2022-09-18T12:33:42.710Z,13.23
2022-09-18T12:39:04.912Z,13.23
2022-09-18T12:44:31.159Z,13.35
2022-09-18T12:49:56.480Z,13.53
2022-09-18T12:55:18.220Z,13.63
2022-09-18T13:00:22.549Z,13.69
2022-09-18T13:05:42.863Z,13.81
2022-09-18T13:10:49.368Z,14.06
2022-09-18T13:15:57.305Z,14.17
2022-09-18T13:21:05.897Z,14.29
2022-09-18T13:26:14.960Z,14.40
2022-09-18T13:31:33.266Z,14.64
2022-09-18T13:36:38.353Z,15.04
2022-09-18T13:41:51.850Z,15.65
2022-09-18T13:47:14.349Z,16.12
2022-09-18T13:52:32.921Z,16.64
2022-09-18T13:57:36.123Z,16.77
2022-09-18T14:02:44.298Z,16.50
2022-09-18T14:07:57.484Z,16.42
2022-09-18T14:13:24.651Z,16.55
2022-09-18T14:18:38.512Z,16.52
2022-09-18T14:23:47.563Z,16.23
2022-09-18T14:28:51.784Z,16.00
2022-09-18T14:33:59.361Z,15.93
2022-09-18T14:39:02.607Z,16.04
2022-09-18T14:44:07.454Z,16.03
2022-09-18T14:49:45.687Z,16.10
2022-09-18T14:54:50.739Z,16.08
2022-09-18T14:59:56.992Z,17.85
2022-09-18T15:05:03.849Z,21.08
2022-09-18T15:10:09.932Z,23.31
2022-09-18T15:15:27.844Z,24.03
2022-09-18T15:20:31.405Z,24.10
2022-09-18T15:25:44.717Z,25.73
2022-09-18T15:30:50.502Z,25.57
2022-09-18T15:35:55.839Z,23.01
2022-09-18T15:40:59.171Z,21.13
2022-09-18T15:46:08.820Z,19.89
2022-09-18T15:51:17.505Z,18.62
2022-09-18T15:56:23.751Z,17.57
2022-09-18T16:01:45.929Z,16.77
2022-09-18T16:06:53.750Z,16.07
2022-09-18T16:11:57.027Z,15.49
2022-09-18T16:17:29.423Z,14.94
2022-09-18T16:22:41.024Z,14.43
2022-09-18T16:27:47.899Z,14.12
2022-09-18T16:32:59.010Z,13.83
2022-09-18T16:38:02.298Z,13.42
2022-09-18T16:43:05.941Z,12.84
2022-09-18T16:48:09.256Z,12.34
2022-09-18T16:53:12.664Z,11.87
2022-09-18T16:58:20.791Z,11.48
2022-09-18T17:03:26.687Z,11.11
2022-09-18T17:08:30.890Z,10.82
2022-09-18T17:13:33.995Z,10.61
2022-09-18T17:18:37.216Z,10.45
2022-09-18T17:23:40.616Z,10.34
2022-09-18T17:28:44.850Z,10.28
2022-09-18T17:33:48.058Z,10.21
2022-09-18T17:38:52.188Z,10.12
2022-09-18T17:43:55.499Z,10.06
2022-09-18T17:49:00.093Z,10.01
2022-09-18T17:54:05.193Z,9.95
2022-09-18T17:59:11.575Z,9.94
2022-09-18T18:04:15.092Z,9.91
2022-09-18T18:09:18.505Z,9.90
2022-09-18T18:14:25.506Z,9.88
2022-09-18T18:19:28.819Z,9.86
2022-09-18T18:24:32.125Z,9.83
2022-09-18T18:29:35.947Z,9.82
2022-09-18T18:34:39.260Z,9.82
2022-09-18T18:39:42.630Z,9.82
2022-09-18T18:44:46.289Z,9.81
2022-09-18T18:49:50.112Z,9.82
2022-09-18T18:54:53.730Z,9.79
2022-09-18T18:59:57.653Z,9.75
2022-09-18T19:05:03.730Z,9.72
2022-09-18T19:10:08.291Z,9.68
2022-09-18T19:15:11.681Z,9.67
2022-09-18T19:20:21.704Z,9.66
2022-09-18T19:25:27.010Z,9.65
2022-09-18T19:30:30.419Z,9.63
2022-09-18T19:35:37.416Z,9.64
2022-09-18T19:40:42.472Z,9.64
2022-09-18T19:45:48.627Z,9.65
2022-09-18T19:50:53.256Z,9.66
2022-09-18T19:55:56.701Z,9.65
2022-09-18T20:01:01.915Z,9.65
2022-09-18T20:06:06.627Z,9.63
2022-09-18T20:11:09.911Z,9.63
2022-09-18T20:16:13.323Z,9.64
2022-09-18T20:21:19.078Z,9.64
2022-09-18T20:26:22.302Z,9.62
2022-09-18T20:31:25.888Z,9.61
2022-09-18T20:36:31.074Z,9.63
2022-09-18T20:41:35.877Z,9.65
2022-09-18T20:46:39.889Z,9.66
2022-09-18T20:51:43.361Z,9.65
2022-09-18T20:56:47.348Z,9.67
2022-09-18T21:01:52.052Z,9.67
2022-09-18T21:07:00.361Z,9.69
2022-09-18T21:12:03.678Z,9.71
2022-09-18T21:17:08.929Z,9.73
2022-09-18T21:22:12.241Z,9.72
2022-09-18T21:27:15.549Z,9.73
2022-09-18T21:32:19.065Z,9.71
2022-09-18T21:37:22.274Z,9.71
2022-09-18T21:42:26.301Z,9.69
2022-09-18T21:47:30.124Z,9.67
2022-09-18T21:52:33.379Z,9.67
2022-09-18T21:57:37.260Z,9.65
2022-09-18T22:02:41.390Z,9.62
2022-09-18T22:07:45.007Z,9.60
2022-09-18T22:12:48.830Z,9.58
2022-09-18T22:17:52.448Z,9.56
2022-09-18T22:22:55.862Z,9.55
2022-09-18T22:27:59.276Z,9.54
2022-09-18T22:33:03.406Z,9.53
2022-09-18T22:38:06.616Z,9.53
2022-09-18T22:43:10.541Z,9.53
2022-09-18T22:48:13.849Z,9.51
2022-09-18T22:53:17.471Z,9.51
2022-09-18T22:58:20.780Z,9.51
2022-09-18T23:03:23.992Z,9.50
2022-09-18T23:08:31.453Z,9.50
2022-09-18T23:13:48.479Z,9.50
2022-09-18T23:18:54.497Z,9.52
2022-09-18T23:23:59.760Z,9.55
2022-09-18T23:29:10.031Z,9.61
2022-09-18T23:34:17.132Z,9.63
2022-09-18T23:39:22.764Z,9.67
2022-09-18T23:44:28.873Z,9.70
2022-09-18T23:49:32.287Z,9.71
2022-09-18T23:54:35.494Z,9.72
2022-09-18T23:59:38.805Z,9.72
